Time;durP1;ratioP1;P1;durP2;ratioP2;P2;SDS_P1;SDS_P2;PMS_P1;PMS_P2;Temp;Humidity;BMP_temperature;BMP_pressure;BME280_temperature;BME280_humidity;BME280_pressure;Samples;Min_cycle;Max_cycle;Signal;HPM_P1;HPM_P2
2021/04/22 00:02:16;;;;;;;7.80;2.93;;;9.60;71.70;;;;;;5051666;28;20189;-80
2021/04/22 00:04:41;;;;;;;7.63;2.73;;;9.60;71.10;;;;;;5051784;28;20600;-81
2021/04/22 00:07:08;;;;;;;5.87;3.20;;;9.60;71.20;;;;;;5052676;28;20660;-80
2021/04/22 00:09:34;;;;;;;5.67;2.87;;;9.60;71.30;;;;;;5051759;28;20173;-80
2021/04/22 00:11:59;;;;;;;10.53;3.07;;;9.50;71.80;;;;;;5052511;28;20408;-80
2021/04/22 00:14:25;;;;;;;9.23;3.00;;;9.60;71.80;;;;;;5052037;28;20415;-78
2021/04/22 00:16:51;;;;;;;9.33;4.00;;;9.50;71.40;;;;;;5052274;28;20181;-80
2021/04/22 00:19:17;;;;;;;8.30;3.90;;;9.50;70.40;;;;;;5052417;28;20181;-80
2021/04/22 00:21:42;;;;;;;6.43;3.10;;;9.30;71.00;;;;;;5051621;28;20177;-80
2021/04/22 00:24:09;;;;;;;9.83;3.60;;;9.30;70.60;;;;;;5052132;28;20235;-80
2021/04/22 00:26:34;;;;;;;6.33;3.80;;;9.40;71.60;;;;;;5051497;28;20556;-80
2021/04/22 00:29:00;;;;;;;9.60;3.63;;;9.40;72.30;;;;;;5051692;28;20401;-80
2021/04/22 00:31:26;;;;;;;4.00;2.73;;;9.40;72.60;;;;;;5051752;28;20267;-79
2021/04/22 00:33:52;;;;;;;7.57;3.50;;;9.40;72.70;;;;;;5052089;28;20170;-81
2021/04/22 00:36:18;;;;;;;7.10;4.80;;;9.30;72.70;;;;;;5052338;28;20474;-81
2021/04/22 00:38:43;;;;;;;15.23;4.10;;;9.20;72.30;;;;;;5051206;28;20233;-81
2021/04/22 00:41:10;;;;;;;11.67;3.90;;;9.20;72.70;;;;;;5052155;28;20597;-80
2021/04/22 00:43:35;;;;;;;6.97;3.80;;;9.10;73.00;;;;;;5033359;28;20184;-81
2021/04/22 00:46:01;;;;;;;9.37;3.30;;;9.10;74.00;;;;;;5051994;28;20802;-81
2021/04/22 00:48:28;;;;;;;7.00;3.70;;;9.10;73.30;;;;;;5051628;28;20608;-78
2021/04/22 00:50:55;;;;;;;5.70;3.30;;;9.10;74.00;;;;;;5052058;28;20797;-81
2021/04/22 00:53:21;;;;;;;4.70;3.23;;;9.10;73.80;;;;;;5051867;28;20923;-81
2021/04/22 00:55:49;;;;;;;9.10;3.60;;;9.10;73.50;;;;;;5051101;28;20391;-81
2021/04/22 00:58:15;;;;;;;7.67;3.60;;;9.00;73.80;;;;;;5052077;28;20424;-80
2021/04/22 01:00:53;;;;;;;7.07;3.37;;;9.00;73.30;;;;;;5051245;28;20400;-80
2021/04/22 01:03:19;;;;;;;10.20;4.87;;;9.00;73.40;;;;;;5052073;28;20976;-80
2021/04/22 01:05:52;;;;;;;6.00;3.90;;;9.10;73.60;;;;;;5051052;28;20472;-80
2021/04/22 01:08:18;;;;;;;9.23;4.10;;;9.00;73.80;;;;;;5052267;28;20502;-80
2021/04/22 01:10:44;;;;;;;6.60;4.70;;;9.00;73.50;;;;;;5051084;28;20420;-81
2021/04/22 01:13:10;;;;;;;8.67;4.30;;;9.00;73.80;;;;;;5051845;28;20418;-82
2021/04/22 01:15:36;;;;;;;6.37;4.00;;;9.00;73.60;;;;;;5050986;28;20513;-81
2021/04/22 01:18:04;;;;;;;15.63;4.03;;;8.90;73.30;;;;;;5051778;28;20404;-82
2021/04/22 01:20:37;;;;;;;10.47;4.20;;;8.90;73.60;;;;;;5051157;28;20489;-80
2021/04/22 01:23:04;;;;;;;7.80;4.30;;;9.00;74.10;;;;;;5051608;28;20416;-82
2021/04/22 01:25:37;;;;;;;11.43;4.93;;;8.90;74.10;;;;;;5051085;28;20946;-79
2021/04/22 01:28:05;;;;;;;8.53;4.30;;;8.80;74.30;;;;;;5051717;28;20408;-82
2021/04/22 01:30:34;;;;;;;5.67;5.13;;;8.80;74.10;;;;;;5016674;28;20408;-80
2021/04/22 01:33:00;;;;;;;11.33;4.47;;;8.90;74.40;;;;;;5051792;28;20416;-82
2021/04/22 01:35:30;;;;;;;7.10;4.47;;;8.80;74.20;;;;;;5051691;28;20426;-82
2021/04/22 01:37:58;;;;;;;8.43;3.67;;;8.80;74.10;;;;;;5051629;28;20394;-82
2021/04/22 01:40:25;;;;;;;12.40;4.50;;;8.80;74.70;;;;;;5054230;28;20420;-82
2021/04/22 01:42:51;;;;;;;8.10;3.90;;;8.90;74.60;;;;;;5054756;28;20498;-82
2021/04/22 01:45:17;;;;;;;9.13;4.87;;;8.80;74.30;;;;;;5055207;28;20525;-82
2021/04/22 01:47:43;;;;;;;11.23;5.07;;;8.80;74.50;;;;;;5054494;28;20421;-82
2021/04/22 01:50:16;;;;;;;11.03;5.57;;;8.70;74.20;;;;;;5055343;28;20503;-82
2021/04/22 01:52:43;;;;;;;8.47;4.63;;;8.70;74.70;;;;;;5054209;28;20404;-82
2021/04/22 01:55:12;;;;;;;8.70;4.63;;;8.70;74.90;;;;;;5055034;28;20404;-82
2021/04/22 01:57:39;;;;;;;7.50;4.90;;;8.70;74.60;;;;;;5036487;28;20435;-82
2021/04/22 02:00:15;;;;;;;9.63;5.17;;;8.70;75.20;;;;;;5054986;28;20549;-82
2021/04/22 02:02:42;;;;;;;9.47;5.10;;;8.70;75.10;;;;;;5054481;28;20421;-82
2021/04/22 02:05:10;;;;;;;9.23;4.93;;;8.70;74.50;;;;;;5054783;28;20407;-82
2021/04/22 02:07:35;;;;;;;9.33;4.83;;;8.70;74.90;;;;;;5054099;28;20395;-82
2021/04/22 02:10:03;;;;;;;7.10;4.30;;;8.70;74.80;;;;;;5054880;28;20919;-81
2021/04/22 02:12:28;;;;;;;7.87;4.50;;;8.70;74.50;;;;;;5054551;28;20293;-81
2021/04/22 02:14:54;;;;;;;10.30;5.10;;;8.60;75.20;;;;;;5053755;28;20508;-81
2021/04/22 02:17:20;;;;;;;8.50;4.57;;;8.60;75.10;;;;;;5054726;28;20183;-81
2021/04/22 02:19:45;;;;;;;7.30;4.40;;;8.60;75.40;;;;;;5053858;28;20280;-81
2021/04/22 02:22:11;;;;;;;14.17;4.93;;;8.50;76.20;;;;;;5054857;28;20180;-80
2021/04/22 02:24:37;;;;;;;11.00;5.03;;;8.50;76.90;;;;;;5053414;28;20668;-81
2021/04/22 02:27:03;;;;;;;6.40;4.33;;;8.50;77.20;;;;;;5054455;28;20261;-82
2021/04/22 02:29:29;;;;;;;9.57;4.40;;;8.50;77.30;;;;;;5054477;28;20641;-81
2021/04/22 02:31:54;;;;;;;10.07;4.67;;;8.50;78.20;;;;;;5053953;28;20463;-82
2021/04/22 02:34:20;;;;;;;10.20;4.17;;;8.50;78.20;;;;;;5054736;28;20640;-83
2021/04/22 02:36:46;;;;;;;8.17;4.60;;;8.40;77.30;;;;;;5053521;28;20173;-81
2021/04/22 02:39:11;;;;;;;9.47;6.47;;;8.50;78.10;;;;;;5054542;28;20185;-81
2021/04/22 02:41:37;;;;;;;12.73;5.40;;;8.50;78.80;;;;;;5053169;28;20224;-80
2021/04/22 02:44:03;;;;;;;10.37;4.70;;;8.50;78.60;;;;;;5054447;28;20631;-80
2021/04/22 02:46:29;;;;;;;7.63;4.67;;;8.50;77.30;;;;;;5053991;28;20201;-81
2021/04/22 02:48:54;;;;;;;11.20;5.20;;;8.50;79.30;;;;;;5053336;28;20430;-81
2021/04/22 02:51:20;;;;;;;8.80;4.33;;;8.50;78.90;;;;;;5053518;28;20183;-81
2021/04/22 02:53:46;;;;;;;6.80;4.00;;;8.50;78.80;;;;;;5053617;28;20648;-81
2021/04/22 02:56:11;;;;;;;11.33;4.90;;;8.50;78.40;;;;;;5053981;28;20177;-81
2021/04/22 02:58:37;;;;;;;8.07;4.53;;;8.50;79.60;;;;;;5053184;28;20204;-80
2021/04/22 03:01:03;;;;;;;10.73;4.70;;;8.60;79.30;;;;;;5053898;28;20177;-80
2021/04/22 03:03:29;;;;;;;12.60;4.47;;;8.50;78.90;;;;;;5053835;28;20246;-81
2021/04/22 03:05:56;;;;;;;7.93;4.43;;;8.50;79.00;;;;;;5052951;28;20559;-80
2021/04/22 03:08:22;;;;;;;9.43;4.50;;;8.50;78.60;;;;;;5053728;28;20518;-81
2021/04/22 03:10:48;;;;;;;10.20;4.80;;;8.70;79.60;;;;;;5052751;28;20959;-80
2021/04/22 03:13:14;;;;;;;6.60;3.90;;;8.60;79.20;;;;;;5053670;28;20757;-80
2021/04/22 03:15:40;;;;;;;9.90;4.60;;;8.70;79.30;;;;;;5052784;28;20403;-81
2021/04/22 03:18:05;;;;;;;6.00;4.80;;;8.70;79.10;;;;;;5053521;28;20390;-81
2021/04/22 03:20:31;;;;;;;7.80;4.20;;;8.80;79.20;;;;;;5053504;28;20414;-80
2021/04/22 03:22:58;;;;;;;6.77;5.00;;;8.70;78.90;;;;;;5052306;28;20183;-80
2021/04/22 03:25:25;;;;;;;7.53;3.70;;;8.70;78.80;;;;;;5053462;28;20498;-80
2021/04/22 03:27:52;;;;;;;8.10;5.37;;;8.70;78.80;;;;;;5052603;28;20933;-80
2021/04/22 03:30:21;;;;;;;12.03;4.87;;;8.80;79.10;;;;;;5053285;28;20398;-80
2021/04/22 03:32:47;;;;;;;10.67;4.73;;;8.80;79.60;;;;;;5052478;28;20406;-80
2021/04/22 03:35:13;;;;;;;6.23;4.87;;;8.80;80.10;;;;;;5052834;28;20919;-80
2021/04/22 03:37:40;;;;;;;11.33;5.17;;;8.80;80.60;;;;;;5052438;28;20170;-79
2021/04/22 03:40:07;;;;;;;9.77;5.10;;;8.80;79.90;;;;;;5035339;28;20545;-80
2021/04/22 03:42:33;;;;;;;10.80;6.90;;;8.80;79.90;;;;;;5035375;28;20501;-80
2021/04/22 03:44:59;;;;;;;11.63;5.00;;;8.80;80.20;;;;;;5052011;28;20498;-81
2021/04/22 03:47:25;;;;;;;11.97;5.20;;;8.80;80.10;;;;;;5052958;28;20446;-81
2021/04/22 03:49:51;;;;;;;6.60;5.33;;;8.70;80.60;;;;;;5034217;28;20521;-81
2021/04/22 03:52:17;;;;;;;8.23;6.27;;;8.80;80.20;;;;;;5035088;28;20419;-82
2021/04/22 03:54:43;;;;;;;6.10;4.80;;;8.80;80.30;;;;;;5052318;28;20192;-81
2021/04/22 03:57:08;;;;;;;7.67;4.60;;;8.80;80.10;;;;;;5052837;28;20424;-81
2021/04/22 03:59:36;;;;;;;9.33;5.00;;;8.80;79.30;;;;;;5052841;28;20174;-81
2021/04/22 04:02:02;;;;;;;9.03;4.70;;;8.80;79.30;;;;;;5051956;28;20181;-81
2021/04/22 04:04:27;;;;;;;10.03;4.83;;;8.80;79.50;;;;;;5052043;28;20413;-81
2021/04/22 04:06:53;;;;;;;10.50;5.77;;;8.70;79.80;;;;;;5051805;28;20439;-80
2021/04/22 04:09:19;;;;;;;9.70;5.23;;;8.70;79.30;;;;;;5052260;28;20173;-80
2021/04/22 04:11:44;;;;;;;10.40;4.10;;;8.70;79.20;;;;;;5051760;28;20181;-80
2021/04/22 04:14:10;;;;;;;6.40;4.20;;;8.80;79.40;;;;;;5052791;28;20500;-80
2021/04/22 04:16:36;;;;;;;10.97;6.17;;;8.70;78.50;;;;;;5052568;28;20189;-80
2021/04/22 04:19:02;;;;;;;9.90;5.63;;;8.60;78.30;;;;;;5051742;28;20200;-81
2021/04/22 04:21:28;;;;;;;9.37;4.83;;;8.60;78.70;;;;;;5052450;28;20178;-80
2021/04/22 04:23:53;;;;;;;12.13;4.97;;;8.50;79.10;;;;;;5051325;28;20976;-80
2021/04/22 04:26:19;;;;;;;10.50;5.97;;;8.50;79.60;;;;;;5052289;28;20726;-80
2021/04/22 04:28:45;;;;;;;7.10;4.80;;;8.50;79.50;;;;;;5051559;28;20189;-80
2021/04/22 04:31:11;;;;;;;8.83;6.20;;;8.40;79.20;;;;;;5052327;28;20173;-80
2021/04/22 04:33:37;;;;;;;11.27;5.00;;;8.40;80.00;;;;;;5052213;28;20910;-81
2021/04/22 04:36:03;;;;;;;11.07;5.13;;;8.40;80.20;;;;;;5051745;28;20173;-80
2021/04/22 04:38:29;;;;;;;10.43;4.77;;;8.40;80.10;;;;;;5052202;28;20381;-81
2021/04/22 04:40:55;;;;;;;8.30;4.83;;;8.30;80.10;;;;;;5051315;28;20975;-81
2021/04/22 04:43:21;;;;;;;18.97;6.47;;;8.40;81.40;;;;;;5052305;28;20175;-80
2021/04/22 04:45:46;;;;;;;8.53;6.50;;;8.30;80.50;;;;;;5051253;28;20271;-80
2021/04/22 04:48:12;;;;;;;7.20;4.80;;;8.40;81.20;;;;;;5052089;28;20631;-80
2021/04/22 04:50:38;;;;;;;12.17;5.07;;;8.30;81.50;;;;;;5052066;28;20239;-81
2021/04/22 04:53:03;;;;;;;10.53;7.00;;;8.30;81.80;;;;;;5051204;28;20176;-81
2021/04/22 04:55:29;;;;;;;12.17;5.90;;;8.30;81.90;;;;;;5052056;28;20188;-81
2021/04/22 04:57:55;;;;;;;13.40;6.53;;;8.40;82.50;;;;;;5051202;28;20176;-80
2021/04/22 05:00:21;;;;;;;11.43;6.40;;;8.30;82.60;;;;;;5051860;28;20279;-80
2021/04/22 05:02:47;;;;;;;14.77;6.77;;;8.30;82.50;;;;;;5051190;28;20184;-80
2021/04/22 05:05:14;;;;;;;18.30;6.03;;;8.40;82.60;;;;;;5051900;28;20406;-80
2021/04/22 05:07:39;;;;;;;17.83;9.37;;;8.40;82.90;;;;;;5052182;28;20537;-80
2021/04/22 05:10:07;;;;;;;12.33;6.93;;;8.50;83.10;;;;;;5051181;28;20408;-81
2021/04/22 05:12:34;;;;;;;11.87;6.00;;;8.40;83.00;;;;;;5051838;28;20182;-81
2021/04/22 05:14:59;;;;;;;10.13;8.53;;;8.50;82.80;;;;;;5052963;28;20415;-80
2021/04/22 05:17:25;;;;;;;11.37;5.63;;;8.50;82.70;;;;;;5055946;28;20869;-81
2021/04/22 05:19:53;;;;;;;18.53;6.67;;;8.50;83.70;;;;;;5054965;28;20181;-80
2021/04/22 05:22:18;;;;;;;14.13;8.13;;;8.70;83.30;;;;;;5055708;28;20188;-80
2021/04/22 05:24:44;;;;;;;10.30;7.20;;;8.60;82.70;;;;;;5055119;28;20433;-78
2021/04/22 05:27:10;;;;;;;11.73;5.60;;;8.70;83.30;;;;;;5055588;28;20292;-80
2021/04/22 05:29:36;;;;;;;11.17;6.87;;;8.80;83.10;;;;;;5055661;28;20166;-80
2021/04/22 05:32:03;;;;;;;14.53;6.90;;;8.80;83.60;;;;;;5054798;28;20337;-80
2021/04/22 05:34:30;;;;;;;12.23;5.93;;;8.80;82.40;;;;;;5055504;28;20412;-80
2021/04/22 05:36:55;;;;;;;14.90;6.20;;;8.80;81.80;;;;;;5054687;28;20426;-80
2021/04/22 05:39:22;;;;;;;10.13;6.13;;;8.90;81.90;;;;;;5055413;28;20487;-80
2021/04/22 05:41:49;;;;;;;15.43;6.40;;;9.00;82.20;;;;;;5054556;28;20538;-79
2021/04/22 05:44:15;;;;;;;8.80;6.13;;;9.00;82.00;;;;;;5055076;28;20411;-80
2021/04/22 05:46:42;;;;;;;10.77;6.30;;;9.10;81.40;;;;;;5055206;28;20921;-80
2021/04/22 05:49:09;;;;;;;11.90;6.00;;;9.10;82.00;;;;;;5054759;28;20184;-80
2021/04/22 05:51:37;;;;;;;6.17;5.03;;;9.10;81.00;;;;;;5055275;28;20443;-80
2021/04/22 05:54:05;;;;;;;19.13;7.03;;;9.20;80.20;;;;;;5054141;28;20474;-80
2021/04/22 05:56:32;;;;;;;10.77;7.13;;;9.20;79.30;;;;;;5055150;28;20412;-80
2021/04/22 05:58:57;;;;;;;13.70;5.80;;;9.30;78.70;;;;;;5054301;28;20407;-80
2021/04/22 06:01:23;;;;;;;15.73;7.10;;;9.30;77.40;;;;;;5055039;28;20407;-80
2021/04/22 06:03:49;;;;;;;14.80;6.07;;;9.40;77.60;;;;;;5036237;28;20658;-80
2021/04/22 06:06:14;;;;;;;13.20;5.07;;;9.40;76.60;;;;;;5055023;28;20212;-83
2021/04/22 06:08:41;;;;;;;10.73;4.83;;;9.50;77.60;;;;;;5054932;28;20166;-83
2021/04/22 06:11:07;;;;;;;9.27;6.60;;;9.60;77.10;;;;;;5054048;28;20731;-84
2021/04/22 06:13:33;;;;;;;15.20;6.47;;;9.60;76.60;;;;;;5054627;28;20409;-84
2021/04/22 06:15:59;;;;;;;9.10;5.00;;;9.70;75.50;;;;;;5036192;28;20419;-83
2021/04/22 06:18:25;;;;;;;10.90;7.90;;;9.80;74.00;;;;;;5037113;28;20520;-83
2021/04/22 06:20:51;;;;;;;10.67;7.70;;;9.80;73.40;;;;;;5053845;28;20404;-82
2021/04/22 06:23:16;;;;;;;8.97;4.67;;;9.90;74.00;;;;;;5054345;28;20460;-83
2021/04/22 06:25:43;;;;;;;10.43;5.90;;;10.00;73.30;;;;;;5053605;28;20549;-83
2021/04/22 06:28:09;;;;;;;15.17;6.33;;;10.00;73.40;;;;;;5053705;28;20189;-83
2021/04/22 06:30:35;;;;;;;11.00;5.47;;;10.00;74.20;;;;;;5054497;28;20404;-83
2021/04/22 06:33:03;;;;;;;9.20;4.67;;;10.20;72.70;;;;;;5035894;28;20408;-83
2021/04/22 06:35:29;;;;;;;12.57;5.00;;;10.20;72.70;;;;;;5054380;28;20413;-83
2021/04/22 06:37:54;;;;;;;9.60;5.20;;;10.20;71.80;;;;;;5053545;28;20422;-83
2021/04/22 06:40:22;;;;;;;8.77;6.40;;;10.30;71.40;;;;;;5053992;28;20277;-83
2021/04/22 06:42:48;;;;;;;10.47;5.07;;;10.30;72.90;;;;;;5053575;28;20173;-80
2021/04/22 06:45:15;;;;;;;13.43;5.30;;;10.40;73.00;;;;;;5053929;28;20410;-83
2021/04/22 06:47:42;;;;;;;6.23;5.47;;;10.50;73.00;;;;;;5054140;28;20178;-83
2021/04/22 06:50:11;;;;;;;7.50;4.83;;;10.60;71.30;;;;;;5053165;28;20416;-83
2021/04/22 06:52:38;;;;;;;11.40;5.20;;;10.60;70.50;;;;;;5054145;28;20485;-82
2021/04/22 06:55:17;;;;;;;8.40;6.20;;;10.70;71.40;;;;;;5053699;28;20563;-83
2021/04/22 06:57:42;;;;;;;5.93;4.90;;;10.70;69.30;;;;;;5053995;28;20390;-84
2021/04/22 07:00:11;;;;;;;7.33;6.70;;;10.80;70.30;;;;;;5052910;28;20584;-83
2021/04/22 07:02:37;;;;;;;6.37;4.03;;;10.80;71.00;;;;;;5054253;28;20189;-80
2021/04/22 07:05:05;;;;;;;7.07;6.37;;;10.90;70.00;;;;;;5053034;28;20412;-84
2021/04/22 07:07:30;;;;;;;7.30;6.03;;;10.80;69.30;;;;;;5053707;28;20456;-83
2021/04/22 07:09:56;;;;;;;4.57;4.17;;;10.80;67.00;;;;;;5052936;28;20927;-81
2021/04/22 07:12:22;;;;;;;8.60;7.00;;;10.70;67.20;;;;;;5053991;28;20171;-81
2021/04/22 07:14:48;;;;;;;8.77;4.67;;;10.70;68.60;;;;;;5053856;28;20206;-81
2021/04/22 07:17:13;;;;;;;6.80;5.87;;;10.80;68.60;;;;;;5052859;28;20186;-82
2021/04/22 07:19:39;;;;;;;6.47;4.60;;;10.70;69.40;;;;;;5053536;28;20746;-81
2021/04/22 07:22:06;;;;;;;5.60;4.53;;;10.80;67.90;;;;;;5052663;28;20174;-81
2021/04/22 07:24:32;;;;;;;5.60;3.67;;;10.70;67.50;;;;;;5059630;28;20463;-83
2021/04/22 07:26:58;;;;;;;8.03;6.23;;;10.70;67.50;;;;;;5071388;28;20456;-82
2021/04/22 07:29:24;;;;;;;5.57;4.77;;;10.80;67.40;;;;;;5073095;28;20454;-81
2021/04/22 07:31:50;;;;;;;13.30;5.23;;;10.80;68.90;;;;;;5073010;28;20397;-82
2021/04/22 07:34:16;;;;;;;7.60;4.30;;;10.80;68.50;;;;;;5072582;28;20174;-83
2021/04/22 07:36:42;;;;;;;12.37;5.90;;;10.90;67.80;;;;;;5073095;28;20424;-82
2021/04/22 07:39:08;;;;;;;7.90;4.70;;;10.80;66.20;;;;;;5072484;28;20400;-82
2021/04/22 07:41:33;;;;;;;12.07;4.47;;;10.90;64.80;;;;;;5073069;28;20494;-82
2021/04/22 07:43:59;;;;;;;6.50;6.00;;;11.00;66.20;;;;;;5072282;28;20435;-82
2021/04/22 07:46:25;;;;;;;6.37;4.23;;;10.90;65.90;;;;;;5071450;28;20263;-82
2021/04/22 07:48:51;;;;;;;5.47;4.47;;;10.90;66.90;;;;;;5072790;28;20762;-81
2021/04/22 07:51:17;;;;;;;5.47;3.57;;;10.90;67.60;;;;;;5071505;28;20638;-83
2021/04/22 07:53:43;;;;;;;6.50;4.07;;;11.10;66.90;;;;;;5072781;28;20424;-82
2021/04/22 07:56:08;;;;;;;5.40;3.43;;;11.00;65.50;;;;;;5070913;28;20784;-82
2021/04/22 07:58:34;;;;;;;6.23;3.97;;;11.00;66.90;;;;;;5071344;28;20227;-81
2021/04/22 08:01:00;;;;;;;6.87;3.87;;;11.10;66.10;;;;;;5071745;28;20185;-82
2021/04/22 08:03:27;;;;;;;10.33;4.90;;;11.10;65.80;;;;;;5071473;28;20942;-83
2021/04/22 08:05:56;;;;;;;6.43;5.00;;;11.20;69.50;;;;;;5072249;28;20207;-80
2021/04/22 08:08:24;;;;;;;4.90;4.50;;;11.70;78.40;;;;;;5071441;28;20771;-83
2021/04/22 08:10:51;;;;;;;20.23;8.97;;;12.30;81.90;;;;;;5072726;28;20424;-83
2021/04/22 08:13:19;;;;;;;6.77;4.67;;;12.80;76.40;;;;;;5070848;28;20421;-83
2021/04/22 08:15:48;;;;;;;11.83;7.60;;;13.20;68.60;;;;;;5072693;28;20412;-84
2021/04/22 08:18:14;;;;;;;25.17;19.10;;;13.80;86.60;;;;;;5070491;28;20473;-84
2021/04/22 08:20:41;;;;;;;43.43;28.63;;;14.20;77.70;;;;;;5072650;28;20404;-79
2021/04/22 08:23:08;;;;;;;56.37;33.43;;;14.60;73.70;;;;;;5069925;28;20453;-78
2021/04/22 08:25:49;;;;;;;78.87;46.33;;;15.00;62.80;;;;;;5051981;28;20458;-79
2021/04/22 08:28:17;;;;;;;26.60;17.97;;;15.40;73.10;;;;;;5033819;28;21038;-81
2021/04/22 08:31:00;;;;;;;12.47;8.73;;;15.80;64.00;;;;;;5034532;28;20408;-81
2021/04/22 08:33:29;;;;;;;17.30;12.70;;;15.90;56.90;;;;;;5052254;28;20400;-80
2021/04/22 08:35:55;;;;;;;6.63;6.00;;;15.70;56.00;;;;;;5033868;28;20461;-81
2021/04/22 08:38:22;;;;;;;9.73;6.40;;;15.70;57.30;;;;;;5034470;28;20408;-81
2021/04/22 08:40:49;;;;;;;11.00;9.23;;;15.60;55.80;;;;;;5051803;28;20404;-80
2021/04/22 08:43:16;;;;;;;11.37;8.57;;;15.50;57.20;;;;;;5051102;28;20868;-80
2021/04/22 08:45:43;;;;;;;15.90;12.60;;;15.50;58.60;;;;;;5034188;28;20455;-80
2021/04/22 08:48:11;;;;;;;38.90;23.97;;;15.60;57.00;;;;;;5051197;28;20412;-80
2021/04/22 08:50:38;;;;;;;10.73;7.50;;;15.60;58.40;;;;;;5051344;28;20501;-79
2021/04/22 08:53:10;;;;;;;26.87;18.67;;;15.60;57.90;;;;;;5050786;28;21028;-80
2021/04/22 08:55:36;;;;;;;13.47;10.63;;;15.60;55.90;;;;;;5051991;28;20411;-81
2021/04/22 08:58:04;;;;;;;21.40;11.70;;;15.40;55.80;;;;;;5051170;28;20411;-81
2021/04/22 09:00:42;;;;;;;114.43;66.03;;;15.50;58.90;;;;;;5033950;28;20420;-81
2021/04/22 09:03:09;;;;;;;13.47;10.60;;;15.40;57.30;;;;;;5050729;28;20427;-80
2021/04/22 09:05:35;;;;;;;27.33;15.50;;;15.30;57.00;;;;;;5051877;28;20470;-80
2021/04/22 09:08:00;;;;;;;13.37;6.90;;;15.40;59.30;;;;;;5051150;28;20891;-80
2021/04/22 09:10:27;;;;;;;23.60;14.40;;;15.60;56.60;;;;;;5051839;28;20228;-81
2021/04/22 09:12:57;;;;;;;9.37;7.20;;;15.60;57.10;;;;;;5034187;28;20187;-81
2021/04/22 09:15:23;;;;;;;9.50;6.30;;;15.60;57.50;;;;;;5051344;28;20419;-80
2021/04/22 09:18:00;;;;;;;10.17;8.60;;;15.40;55.90;;;;;;5051715;28;20411;-86
2021/04/22 09:20:33;;;;;;;6.77;6.07;;;15.30;54.70;;;;;;5052191;28;20165;-78
2021/04/22 09:22:59;;;;;;;8.33;6.90;;;15.00;55.70;;;;;;5050946;28;20399;-77
2021/04/22 09:25:27;;;;;;;8.73;5.43;;;14.80;57.90;;;;;;5051257;28;20459;-78
2021/04/22 09:28:06;;;;;;;7.47;6.10;;;14.90;57.20;;;;;;5051464;28;20427;-78
2021/04/22 09:30:36;;;;;;;10.13;6.13;;;14.80;57.70;;;;;;5051764;28;20410;-78
2021/04/22 09:33:02;;;;;;;8.00;5.10;;;14.60;56.00;;;;;;5050701;28;20439;-77
2021/04/22 09:35:28;;;;;;;12.67;6.27;;;14.80;59.30;;;;;;5033722;28;20988;-78
2021/04/22 09:37:56;;;;;;;6.43;4.37;;;15.10;60.10;;;;;;5033915;28;20514;-80
2021/04/22 09:40:29;;;;;;;7.30;5.57;;;15.20;58.40;;;;;;5051225;28;20455;-80
2021/04/22 09:42:58;;;;;;;6.63;4.93;;;15.40;59.10;;;;;;5034241;28;20420;-78
2021/04/22 09:45:28;;;;;;;12.60;9.87;;;15.60;56.70;;;;;;5050802;28;20404;-78
2021/04/22 09:47:55;;;;;;;17.50;11.57;;;15.80;57.10;;;;;;5033494;28;20413;-79
2021/04/22 09:50:26;;;;;;;10.70;9.60;;;16.30;61.00;;;;;;5050696;28;21124;-79
2021/04/22 09:52:56;;;;;;;14.80;10.63;;;16.80;60.40;;;;;;5033888;28;20439;-77
2021/04/22 09:55:29;;;;;;;6.77;6.17;;;17.20;59.00;;;;;;5033012;28;20411;-78
2021/04/22 09:57:56;;;;;;;7.03;5.10;;;17.60;55.60;;;;;;5051719;28;20396;-76
2021/04/22 10:00:25;;;;;;;7.80;6.60;;;17.80;54.70;;;;;;5050385;28;20409;-76
2021/04/22 10:02:55;;;;;;;8.03;5.37;;;17.70;51.50;;;;;;5054479;28;20892;-76
2021/04/22 10:05:24;;;;;;;8.33;6.00;;;17.50;51.00;;;;;;5054068;28;20919;-76
2021/04/22 10:07:50;;;;;;;8.53;5.20;;;17.30;53.40;;;;;;5054339;28;20514;-76
2021/04/22 10:10:19;;;;;;;5.40;4.50;;;17.20;52.30;;;;;;5053977;28;20527;-76
2021/04/22 10:12:45;;;;;;;6.13;5.63;;;17.30;53.10;;;;;;5054635;28;20742;-76
2021/04/22 10:15:18;;;;;;;6.70;5.80;;;17.40;52.10;;;;;;5054268;28;20459;-76
2021/04/22 10:17:57;;;;;;;7.27;5.23;;;17.20;54.90;;;;;;5055007;28;20466;-76
2021/04/22 10:20:24;;;;;;;10.20;4.60;;;17.40;54.30;;;;;;5053819;28;20408;-76
2021/04/22 10:22:53;;;;;;;6.80;6.00;;;17.50;52.80;;;;;;5054349;28;20744;-76
2021/04/22 10:25:26;;;;;;;6.03;5.53;;;17.50;55.60;;;;;;5053888;28;20630;-76
2021/04/22 10:27:53;;;;;;;8.10;5.40;;;17.60;54.70;;;;;;5036894;28;20872;-76
2021/04/22 10:30:23;;;;;;;6.00;3.93;;;17.80;53.70;;;;;;5053636;28;20446;-76
2021/04/22 10:32:50;;;;;;;6.00;4.43;;;18.00;52.90;;;;;;5054029;28;20436;-76
2021/04/22 10:35:24;;;;;;;9.80;4.30;;;17.90;52.50;;;;;;5053652;28;20406;-76
2021/04/22 10:37:53;;;;;;;5.20;4.73;;;17.90;52.10;;;;;;5054326;28;20400;-76
2021/04/22 10:40:24;;;;;;;6.67;4.53;;;18.00;51.90;;;;;;5035742;28;20408;-76
2021/04/22 10:42:54;;;;;;;4.97;4.47;;;17.90;51.20;;;;;;5054308;28;20903;-76
2021/04/22 10:45:20;;;;;;;5.70;3.67;;;17.80;51.50;;;;;;5053350;28;20423;-76
2021/04/22 10:47:46;;;;;;;6.80;4.70;;;17.90;52.10;;;;;;5036125;28;20477;-76
2021/04/22 10:50:18;;;;;;;5.97;3.90;;;18.00;49.70;;;;;;5053273;28;20408;-76
2021/04/22 10:52:46;;;;;;;5.97;5.47;;;18.00;52.40;;;;;;5054288;28;20742;-76
2021/04/22 10:55:28;;;;;;;8.90;4.90;;;18.10;55.30;;;;;;5053217;28;20499;-78
2021/04/22 10:57:56;;;;;;;6.73;6.10;;;18.50;52.80;;;;;;5053795;28;20381;-74
2021/04/22 11:00:26;;;;;;;5.10;4.60;;;19.00;51.80;;;;;;5052868;28;20425;-75
2021/04/22 11:02:56;;;;;;;6.53;4.20;;;19.40;51.00;;;;;;5054063;28;20392;-74
2021/04/22 11:05:30;;;;;;;5.10;4.60;;;19.70;49.00;;;;;;5053283;28;20412;-75
2021/04/22 11:08:06;;;;;;;4.97;4.37;;;20.00;49.20;;;;;;5053836;28;20389;-74
2021/04/22 11:10:36;;;;;;;4.83;4.07;;;20.30;48.70;;;;;;5053512;28;20407;-74
2021/04/22 11:13:10;;;;;;;4.77;4.30;;;20.70;48.60;;;;;;5053043;28;20408;-74
2021/04/22 11:15:36;;;;;;;8.10;4.10;;;20.90;48.90;;;;;;5036137;28;20753;-74
2021/04/22 11:18:10;;;;;;;5.27;4.00;;;21.10;47.60;;;;;;5053531;28;20462;-74
2021/04/22 11:20:42;;;;;;;5.17;4.03;;;21.30;47.70;;;;;;5035662;28;20177;-74
2021/04/22 11:23:19;;;;;;;5.93;4.70;;;21.50;47.20;;;;;;5052431;28;20427;-74
2021/04/22 11:25:53;;;;;;;5.37;4.10;;;21.70;47.30;;;;;;5053520;28;20527;-74
2021/04/22 11:28:33;;;;;;;6.53;5.17;;;21.80;47.40;;;;;;5052611;28;20408;-74
2021/04/22 11:31:09;;;;;;;5.07;4.20;;;21.90;47.20;;;;;;5053335;28;20458;-74
2021/04/22 11:33:35;;;;;;;5.93;4.40;;;22.00;46.90;;;;;;5053396;28;20404;-74
2021/04/22 11:36:15;;;;;;;12.43;6.37;;;22.10;47.40;;;;;;5035386;28;20455;-78
2021/04/22 11:39:04;;;;;;;18.53;7.43;;;22.10;47.30;;;;;;5053181;28;20418;-78
2021/04/22 11:41:31;;;;;;;11.50;7.43;;;22.10;47.80;;;;;;5053041;28;20491;-77
2021/04/22 11:44:09;;;;;;;14.57;6.93;;;22.20;47.50;;;;;;5053274;28;20408;-75
2021/04/22 11:46:44;;;;;;;10.60;6.63;;;22.20;47.30;;;;;;5053065;28;20440;-77
2021/04/22 11:49:30;;;;;;;13.07;6.77;;;22.30;47.20;;;;;;5052290;28;20416;-74
2021/04/22 11:51:57;;;;;;;9.83;6.30;;;22.20;46.50;;;;;;5053047;28;20392;-74
2021/04/22 11:54:31;;;;;;;11.57;7.20;;;22.30;46.70;;;;;;5052624;28;20760;-74
2021/04/22 11:57:01;;;;;;;10.00;8.23;;;22.40;46.70;;;;;;5052924;28;20422;-74
2021/04/22 11:59:27;;;;;;;7.80;6.00;;;22.40;46.10;;;;;;5052005;28;20404;-74
2021/04/22 12:01:57;;;;;;;7.80;7.00;;;22.40;46.30;;;;;;5052763;28;20409;-74
2021/04/22 12:04:33;;;;;;;15.23;13.53;;;22.40;46.30;;;;;;5051959;28;20793;-74
2021/04/22 12:06:59;;;;;;;10.60;9.10;;;22.30;45.60;;;;;;5052723;28;20462;-74
2021/04/22 12:09:29;;;;;;;6.43;5.40;;;22.10;46.40;;;;;;5052068;28;20653;-74
2021/04/22 12:12:23;;;;;;;8.03;5.30;;;21.80;47.30;;;;;;5052525;28;20426;-74
2021/04/22 12:14:52;;;;;;;6.13;5.23;;;21.70;46.40;;;;;;5052376;28;20416;-74
2021/04/22 12:17:24;;;;;;;5.87;4.93;;;21.70;45.80;;;;;;5051609;28;20412;-74
2021/04/22 12:19:51;;;;;;;6.77;6.00;;;21.60;45.70;;;;;;5052129;28;20760;-74
2021/04/22 12:22:28;;;;;;;11.47;6.50;;;21.40;44.90;;;;;;5051629;28;20902;-74
2021/04/22 12:24:55;;;;;;;9.97;6.80;;;21.20;45.30;;;;;;5051654;28;20503;-75
2021/04/22 12:27:32;;;;;;;9.00;7.03;;;20.90;44.50;;;;;;5051499;28;20542;-75
2021/04/22 12:29:59;;;;;;;9.47;8.60;;;20.80;44.50;;;;;;5035331;28;20409;-75
2021/04/22 12:32:25;;;;;;;12.00;7.20;;;20.60;44.70;;;;;;5051361;28;20480;-75
2021/04/22 12:34:51;;;;;;;8.43;7.33;;;20.80;45.00;;;;;;5051797;28;20436;-75
2021/04/22 12:37:17;;;;;;;7.90;5.90;;;20.90;44.80;;;;;;5051392;28;20831;-74
2021/04/22 12:39:48;;;;;;;9.60;7.00;;;21.00;46.00;;;;;;5052319;28;20223;-75
2021/04/22 12:42:22;;;;;;;7.20;5.67;;;21.10;45.50;;;;;;5051137;28;20479;-75
2021/04/22 12:44:55;;;;;;;6.47;5.97;;;21.10;45.50;;;;;;5052112;28;20424;-75
2021/04/22 12:47:35;;;;;;;7.80;6.40;;;21.00;45.80;;;;;;5051227;28;20459;-74
2021/04/22 12:50:02;;;;;;;11.10;6.13;;;20.90;46.40;;;;;;5052118;28;20420;-75
2021/04/22 12:52:27;;;;;;;9.20;8.23;;;20.70;46.60;;;;;;5051243;28;20613;-75